Time;durP1;ratioP1;P1;durP2;ratioP2;P2;SDS_P1;SDS_P2;PMS_P1;PMS_P2;Temp;Humidity;BMP_temperature;BMP_pressure;BME280_temperature;BME280_humidity;BME280_pressure;Samples;Min_cycle;Max_cycle;Signal;HPM_P1;HPM_P2
2023/01/09 00:00:12;;;;;;;9.82;7.82;;;;;;;;;;5093569;28;20062;-68
2023/01/09 00:02:39;;;;;;;;;;;;;;;;;;5093625;28;20483;-67
2023/01/09 00:05:06;;;;;;;12.52;7.57;;;;;;;;;;5075234;28;20270;-66
2023/01/09 00:07:32;;;;;;;13.38;7.75;;;;;;;;;;5093317;28;20535;-67
2023/01/09 00:09:58;;;;;;;8.77;7.10;;;;;;;;;;5075199;28;20028;-68
2023/01/09 00:12:24;;;;;;;9.80;7.03;;;;;;;;;;5092932;28;20035;-68
2023/01/09 00:14:50;;;;;;;13.45;7.75;;;;;;;;;;5093355;28;20031;-68
2023/01/09 00:17:16;;;;;;;10.43;7.70;;;;;;;;;;5093301;28;20031;-68
2023/01/09 00:19:42;;;;;;;12.32;7.88;;;;;;;;;;5092950;28;20693;-67
2023/01/09 00:22:08;;;;;;;8.75;7.25;;;;;;;;;;5093005;28;20020;-67
2023/01/09 00:24:37;;;;;;;13.55;7.75;;;;;;;;;;5092986;28;20027;-68
2023/01/09 00:27:04;;;;;;;11.25;7.00;;;;;;;;;;5093178;28;20020;-67
2023/01/09 00:29:30;;;;;;;11.00;7.55;;;;;;;;;;5093288;28;20363;-68
2023/01/09 00:31:56;;;;;;;9.77;7.13;;;;;;;;;;5092983;28;20544;-68
2023/01/09 00:34:22;;;;;;;18.60;7.20;;;;;;;;;;5092394;28;20032;-68
2023/01/09 00:36:53;;;;;;;10.40;7.50;;;;;;;;;;5092963;28;20382;-67
2023/01/09 00:39:20;;;;;;;10.98;7.57;;;;;;;;;;5074718;28;20493;-67
2023/01/09 00:41:46;;;;;;;11.68;8.27;;;;;;;;;;5092851;28;20530;-66
2023/01/09 00:44:29;;;;;;;10.13;6.70;;;;;;;;;;5092438;28;20066;-68
2023/01/09 00:47:02;;;;;;;9.50;7.55;;;;;;;;;;5092554;28;20039;-67
2023/01/09 00:49:30;;;;;;;11.10;6.68;;;;;;;;;;5092404;28;20031;-67
2023/01/09 00:51:56;;;;;;;8.95;6.32;;;;;;;;;;5092595;28;20111;-67
2023/01/09 00:54:23;;;;;;;9.95;6.78;;;;;;;;;;5092216;28;20020;-67
2023/01/09 00:56:49;;;;;;;11.18;7.07;;;;;;;;;;5092657;28;20020;-67
2023/01/09 00:59:15;;;;;;;8.30;6.75;;;;;;;;;;5091646;28;20028;-67
2023/01/09 01:01:41;;;;;;;8.88;6.35;;;;;;;;;;5092420;28;20038;-67
2023/01/09 01:09:36;;;;;;;12.82;7.13;;;;;;;;;;5092467;28;20050;-68
2023/01/09 01:12:05;;;;;;;7.55;6.53;;;;;;;;;;5092293;28;20474;-68
2023/01/09 01:14:33;;;;;;;7.28;6.45;;;;;;;;;;5092089;28;20032;-67
2023/01/09 01:16:59;;;;;;;8.30;6.65;;;;;;;;;;5090336;22;20041;-68
2023/01/09 01:19:25;;;;;;;8.43;6.63;;;;;;;;;;5051822;28;20525;-67
2023/01/09 01:21:51;;;;;;;8.25;6.20;;;;;;;;;;5051965;28;20029;-67
2023/01/09 01:24:18;;;;;;;9.15;6.63;;;;;;;;;;5051675;28;20025;-68
2023/01/09 01:26:44;;;;;;;6.90;6.15;;;;;;;;;;5051863;28;20029;-67
2023/01/09 01:29:10;;;;;;;12.07;6.28;;;;;;;;;;5051825;28;20044;-67
2023/01/09 01:31:36;;;;;;;6.97;6.20;;;;;;;;;;5051529;28;20024;-68
2023/01/09 01:34:03;;;;;;;9.35;6.63;;;;;;;;;;5033756;28;20028;-68
2023/01/09 01:36:29;;;;;;;8.45;6.90;;;;;;;;;;5033862;28;20116;-68
2023/01/09 01:38:55;;;;;;;8.57;5.93;;;;;;;;;;5051729;28;20024;-68
2023/01/09 01:41:30;;;;;;;9.07;6.75;;;;;;;;;;5051628;28;20020;-67
2023/01/09 01:44:00;;;;;;;8.65;5.80;;;;;;;;;;5033714;28;20029;-68
2023/01/09 01:46:27;;;;;;;10.15;6.30;;;;;;;;;;5051528;28;20029;-68
2023/01/09 01:48:56;;;;;;;11.82;9.02;;;;;;;;;;5051693;28;20463;-68
2023/01/09 01:51:24;;;;;;;6.85;6.20;;;;;;;;;;5051676;28;20032;-68
2023/01/09 01:53:52;;;;;;;10.55;6.03;;;;;;;;;;5051383;28;20029;-68
2023/01/09 01:56:24;;;;;;;7.72;6.07;;;;;;;;;;5051628;28;20056;-68
2023/01/09 01:58:53;;;;;;;8.07;5.78;;;;;;;;;;5033673;28;20021;-68
2023/01/09 02:01:20;;;;;;;9.48;5.97;;;;;;;;;;5055123;28;20079;-68
2023/01/09 02:03:46;;;;;;;6.95;5.53;;;;;;;;;;5055392;28;20032;-68
2023/01/09 02:06:13;;;;;;;7.00;5.72;;;;;;;;;;5055787;28;20455;-68
2023/01/09 02:08:39;;;;;;;8.07;5.75;;;;;;;;;;5055467;28;20025;-68
2023/01/09 02:11:05;;;;;;;7.22;6.15;;;;;;;;;;5055533;28;20025;-68
2023/01/09 02:13:34;;;;;;;9.02;5.55;;;;;;;;;;5055066;28;20039;-68
2023/01/09 02:16:18;;;;;;;7.95;6.07;;;;;;;;;;5055244;28;20501;-68
2023/01/09 02:19:03;;;;;;;8.15;5.10;;;;;;;;;;5055297;28;20025;-68
2023/01/09 02:21:32;;;;;;;11.48;5.97;;;;;;;;;;5055291;28;20021;-68
2023/01/09 02:24:07;;;;;;;8.30;5.88;;;;;;;;;;5037093;28;20048;-67
2023/01/09 02:26:57;;;;;;;12.40;5.55;;;;;;;;;;5037177;28;20051;-68
2023/01/09 02:29:42;;;;;;;8.13;6.40;;;;;;;;;;5055177;28;20051;-68
2023/01/09 02:32:27;;;;;;;11.43;5.53;;;;;;;;;;5054883;28;20029;-68
2023/01/09 02:35:06;;;;;;;7.75;5.55;;;;;;;;;;5055190;28;20029;-67
2023/01/09 02:37:32;;;;;;;9.10;5.90;;;;;;;;;;5054896;28;20031;-67
2023/01/09 02:40:01;;;;;;;6.63;5.63;;;;;;;;;;5054850;28;20029;-68
2023/01/09 02:42:27;;;;;;;8.98;4.78;;;;;;;;;;5054628;28;20021;-68
2023/01/09 02:44:53;;;;;;;8.63;6.35;;;;;;;;;;5054771;28;20056;-68
2023/01/09 02:47:19;;;;;;;8.02;4.80;;;;;;;;;;5054719;28;20509;-68
2023/01/09 02:49:50;;;;;;;9.25;6.03;;;;;;;;;;5054738;28;20033;-67
2023/01/09 02:52:22;;;;;;;6.80;5.55;;;;;;;;;;5054372;28;20079;-68
2023/01/09 02:55:03;;;;;;;8.57;5.85;;;;;;;;;;5054669;28;20090;-68
2023/01/09 02:57:40;;;;;;;8.75;4.85;;;;;;;;;;5054493;28;20025;-68
2023/01/09 03:00:13;;;;;;;8.93;5.15;;;;;;;;;;5054770;28;20025;-68
2023/01/09 03:02:39;;;;;;;6.45;4.80;;;;;;;;;;5054228;28;20036;-68
2023/01/09 03:05:05;;;;;;;7.13;5.13;;;;;;;;;;5054534;28;20036;-67
2023/01/09 03:07:35;;;;;;;8.55;5.38;;;;;;;;;;5054321;28;20510;-68
2023/01/09 03:10:08;;;;;;;7.70;5.45;;;;;;;;;;5054280;28;20036;-68
2023/01/09 03:12:35;;;;;;;9.20;5.18;;;;;;;;;;5053950;28;20021;-67
2023/01/09 03:15:02;;;;;;;6.28;5.20;;;;;;;;;;5054303;28;20021;-67
2023/01/09 03:17:31;;;;;;;7.67;5.13;;;;;;;;;;5054006;28;20490;-67
2023/01/09 03:19:58;;;;;;;6.90;5.55;;;;;;;;;;5036349;28;20291;-69
2023/01/09 03:22:24;;;;;;;7.03;5.43;;;;;;;;;;5053917;28;20048;-68
2023/01/09 03:24:50;;;;;;;5.70;4.78;;;;;;;;;;5036361;28;20048;-69
2023/01/09 03:27:16;;;;;;;5.90;5.05;;;;;;;;;;5054178;28;20471;-69
2023/01/09 03:29:42;;;;;;;9.02;5.25;;;;;;;;;;5053889;28;20110;-69
2023/01/09 03:32:08;;;;;;;8.57;4.38;;;;;;;;;;5053860;28;20029;-69
2023/01/09 03:34:34;;;;;;;7.18;4.97;;;;;;;;;;5035959;28;20025;-69
2023/01/09 03:37:00;;;;;;;12.38;5.40;;;;;;;;;;5035932;28;20032;-69
2023/01/09 03:39:26;;;;;;;6.43;4.50;;;;;;;;;;5053792;28;20525;-69
2023/01/09 03:41:52;;;;;;;4.70;4.20;;;;;;;;;;5053779;28;20104;-69
2023/01/09 03:44:18;;;;;;;7.80;5.03;;;;;;;;;;5053472;28;20032;-69
2023/01/09 03:46:44;;;;;;;5.30;4.78;;;;;;;;;;5053657;28;20058;-68
2023/01/09 03:49:10;;;;;;;6.93;4.65;;;;;;;;;;5053655;28;20032;-68
2023/01/09 03:51:36;;;;;;;6.00;4.78;;;;;;;;;;5053605;28;20025;-69
2023/01/09 03:54:02;;;;;;;5.05;4.53;;;;;;;;;;5053312;28;20364;-69
2023/01/09 03:56:28;;;;;;;6.25;4.75;;;;;;;;;;5035604;28;20117;-68
2023/01/09 03:58:54;;;;;;;5.47;4.30;;;;;;;;;;5035484;28;20122;-69
2023/01/09 04:01:20;;;;;;;5.15;4.63;;;;;;;;;;5035645;28;20372;-69
2023/01/09 04:03:46;;;;;;;7.38;4.55;;;;;;;;;;5053023;28;20025;-69
2023/01/09 04:06:12;;;;;;;9.73;4.78;;;;;;;;;;5053216;28;20104;-70
2023/01/09 04:08:38;;;;;;;6.15;4.65;;;;;;;;;;5053443;28;20579;-68
2023/01/09 06:44:28;;;;;;;10.75;3.83;;;;;;;;;;5069179;28;20375;-32
2023/01/09 06:46:54;;;;;;;3.97;3.22;;;;;;;;;;5068805;28;20033;-32
2023/01/09 06:49:23;;;;;;;5.15;3.15;;;;;;;;;;5069044;28;20107;-32
2023/01/09 06:51:52;;;;;;;9.52;2.97;;;;;;;;;;5069871;28;20028;-32
2023/01/09 06:54:18;;;;;;;9.18;3.60;;;;;;;;;;5069131;28;20055;-31
2023/01/09 06:56:44;;;;;;;6.15;0.93;;;;;;;;;;5069422;28;20044;-30
2023/01/09 06:59:11;;;;;;;7.00;0.90;;;;;;;;;;5072204;28;20471;-31
2023/01/09 07:01:40;;;;;;;11.23;1.40;;;;;;;;;;5069732;28;20078;-31
2023/01/09 07:04:06;;;;;;;26.08;1.73;;;;;;;;;;5068973;28;20043;-32
2023/01/09 07:06:33;;;;;;;34.17;2.20;;;;;;;;;;5069329;28;20013;-35
2023/01/09 07:08:59;;;;;;;12.38;1.70;;;;;;;;;;5068995;28;20472;-35
2023/01/09 07:11:25;;;;;;;18.73;2.42;;;;;;;;;;5069152;28;20104;-34
2023/01/09 07:13:51;;;;;;;21.38;2.53;;;;;;;;;;5067258;28;20394;-35
2023/01/09 07:16:16;;;;;;;16.92;2.22;;;;;;;;;;5084788;22;20027;-36
2023/01/09 07:19:29;;;;;;;37.33;2.90;;;;;;;;;;5069562;28;20957;-63
2023/01/09 07:21:55;;;;;;;15.48;2.15;;;;;;;;;;5068244;28;20037;-63
2023/01/09 07:24:21;;;;;;;21.58;1.90;;;;;;;;;;5069735;28;20044;-64
2023/01/09 07:26:46;;;;;;;26.40;2.22;;;;;;;;;;5070753;28;20526;-64
2023/01/09 07:29:13;;;;;;;20.60;1.98;;;;;;;;;;5070425;28;20032;-64
2023/01/09 07:31:39;;;;;;;8.30;1.48;;;;;;;;;;5069989;28;20021;-64
2023/01/09 07:34:04;;;;;;;7.55;1.50;;;;;;;;;;5069684;28;20492;-64
2023/01/09 07:36:30;;;;;;;8.70;1.60;;;;;;;;;;5070284;28;20028;-64
2023/01/09 07:38:56;;;;;;;4.50;1.40;;;;;;;;;;5069757;28;20091;-63
2023/01/09 07:41:22;;;;;;;7.28;1.48;;;;;;;;;;5069796;28;20025;-64
2023/01/09 07:43:48;;;;;;;5.03;1.40;;;;;;;;;;5068426;28;20031;-64
2023/01/09 07:46:14;;;;;;;4.97;1.50;;;;;;;;;;5070011;28;20150;-63
2023/01/09 07:48:40;;;;;;;4.80;1.20;;;;;;;;;;5069732;28;20032;-64
2023/01/09 07:51:06;;;;;;;5.43;1.40;;;;;;;;;;5069730;28;20479;-64
2023/01/09 07:53:32;;;;;;;6.28;1.75;;;;;;;;;;5069644;28;20029;-64
2023/01/09 07:55:58;;;;;;;3.70;1.50;;;;;;;;;;5068404;28;20506;-64
2023/01/09 07:58:24;;;;;;;1.73;1.08;;;;;;;;;;5069806;28;20107;-64
2023/01/09 08:00:50;;;;;;;5.78;1.40;;;;;;;;;;5068312;28;20021;-64
2023/01/09 08:03:16;;;;;;;6.63;1.38;;;;;;;;;;5069792;28;20074;-64
2023/01/09 08:05:42;;;;;;;3.80;1.60;;;;;;;;;;5068668;28;20025;-63
2023/01/09 08:08:08;;;;;;;2.50;1.33;;;;;;;;;;5069837;28;20021;-63
2023/01/09 08:10:34;;;;;;;3.70;1.20;;;;;;;;;;5068889;28;20029;-64
2023/01/09 08:13:00;;;;;;;6.53;1.13;;;;;;;;;;5069622;28;20021;-64
2023/01/09 08:15:26;;;;;;;2.38;1.10;;;;;;;;;;5070048;28;20116;-64
2023/01/09 08:17:52;;;;;;;2.22;1.08;;;;;;;;;;5069801;28;20115;-63
2023/01/09 08:20:18;;;;;;;3.03;1.35;;;;;;;;;;5069364;28;20048;-63
2023/01/09 08:22:49;;;;;;;1.17;1.08;;;;;;;;;;5067970;28;20048;-64
2023/01/09 08:25:15;;;;;;;4.35;1.02;;;;;;;;;;5069484;28;20028;-64
2023/01/09 08:27:41;;;;;;;2.13;1.02;;;;;;;;;;5069279;28;20052;-64
2023/01/09 08:30:08;;;;;;;2.70;1.00;;;;;;;;;;5059052;28;20475;-63
2023/01/09 08:32:34;;;;;;;1.80;0.90;;;;;;;;;;5056083;28;20053;-63
2023/01/09 08:35:00;;;;;;;7.22;1.40;;;;;;;;;;5056129;28;20108;-64
2023/01/09 08:37:26;;;;;;;6.43;1.05;;;;;;;;;;5055845;28;20120;-64
2023/01/09 08:39:52;;;;;;;3.65;1.48;;;;;;;;;;5055750;28;20021;-64
2023/01/09 08:47:48;;;;;;;2.53;1.35;;;;;;;;;;5056257;28;20036;-64
2023/01/09 08:50:14;;;;;;;2.20;0.93;;;;;;;;;;5056106;28;20055;-64
2023/01/09 08:52:40;;;;;;;2.35;1.33;;;;;;;;;;5055885;28;20029;-64
2023/01/09 08:55:06;;;;;;;1.33;1.15;;;;;;;;;;5056386;28;20104;-64
2023/01/09 08:57:32;;;;;;;1.60;1.00;;;;;;;;;;5055661;28;20479;-64
2023/01/09 08:59:58;;;;;;;4.45;1.08;;;;;;;;;;5055825;28;20025;-64
2023/01/09 09:02:24;;;;;;;1.33;1.00;;;;;;;;;;5056133;28;20062;-64
2023/01/09 09:04:54;;;;;;;1.02;0.80;;;;;;;;;;5056266;28;20395;-64
2023/01/09 09:07:25;;;;;;;6.50;1.27;;;;;;;;;;5054783;28;20395;-64
2023/01/09 09:09:52;;;;;;;1.48;1.00;;;;;;;;;;5056052;28;20017;-64
2023/01/09 09:12:18;;;;;;;1.85;0.90;;;;;;;;;;5056253;28;20021;-64
2023/01/09 09:17:31;;;;;;;1.60;0.90;;;;;;;;;;5055703;28;20040;-64
2023/01/09 09:19:57;;;;;;;0.77;0.60;;;;;;;;;;5055906;28;20032;-64
2023/01/09 09:22:23;;;;;;;5.50;1.10;;;;;;;;;;5054503;28;20025;-65
2023/01/09 09:24:49;;;;;;;1.80;0.80;;;;;;;;;;5056941;28;20375;-64
2023/01/09 09:27:15;;;;;;;2.78;0.93;;;;;;;;;;5053611;28;20032;-63
2023/01/09 09:29:41;;;;;;;3.13;0.88;;;;;;;;;;5052768;28;20060;-68
2023/01/09 09:32:07;;;;;;;2.85;0.88;;;;;;;;;;5054682;28;20025;-67
2023/01/09 09:34:33;;;;;;;6.13;1.02;;;;;;;;;;5054435;28;20017;-66
2023/01/09 09:36:59;;;;;;;3.40;1.35;;;;;;;;;;5053723;28;20043;-67
2023/01/09 09:39:25;;;;;;;0.70;0.70;;;;;;;;;;5056496;28;20032;-65
2023/01/09 09:44:45;;;;;;;4.80;1.10;;;;;;;;;;5055469;28;20032;-66
2023/01/09 09:47:17;;;;;;;1.13;0.70;;;;;;;;;;5055463;28;20029;-66
2023/01/09 09:49:59;;;;;;;1.88;1.05;;;;;;;;;;5054937;28;20367;-67
2023/01/09 09:52:30;;;;;;;5.68;1.10;;;;;;;;;;5055066;28;20023;-65
2023/01/09 09:54:59;;;;;;;2.20;0.77;;;;;;;;;;5054095;28;20037;-66
2023/01/09 09:57:29;;;;;;;1.30;0.90;;;;;;;;;;5053890;28;20033;-65
2023/01/09 09:59:55;;;;;;;1.05;0.70;;;;;;;;;;5056057;28;20029;-66
2023/01/09 10:02:24;;;;;;;0.82;0.80;;;;;;;;;;5055940;28;20032;-65
2023/01/09 10:04:54;;;;;;;0.98;0.70;;;;;;;;;;5056999;28;20021;-65
2023/01/09 10:07:23;;;;;;;1.98;0.80;;;;;;;;;;5056458;28;20017;-67
2023/01/09 10:09:58;;;;;;;3.97;0.88;;;;;;;;;;5056073;28;20384;-65
2023/01/09 10:12:30;;;;;;;5.80;0.90;;;;;;;;;;5055529;28;20489;-63
2023/01/09 10:14:58;;;;;;;4.53;0.90;;;;;;;;;;5054213;28;20052;-66
2023/01/09 10:17:44;;;;;;;1.52;1.17;;;;;;;;;;5053988;28;20029;-66
2023/01/09 10:20:29;;;;;;;0.50;0.50;;;;;;;;;;5052273;28;20025;-67
2023/01/09 10:22:55;;;;;;;5.72;1.10;;;;;;;;;;5054935;28;20021;-65
2023/01/09 10:25:31;;;;;;;2.15;0.90;;;;;;;;;;5052574;28;20044;-66
2023/01/09 10:28:06;;;;;;;0.75;0.60;;;;;;;;;;5053053;28;20430;-66
2023/01/09 10:30:50;;;;;;;1.38;0.90;;;;;;;;;;5052755;28;20486;-66
2023/01/09 10:33:28;;;;;;;1.15;0.90;;;;;;;;;;5052538;28;20025;-65
2023/01/09 10:36:13;;;;;;;5.65;1.00;;;;;;;;;;5052831;28;20044;-65
2023/01/09 10:38:42;;;;;;;1.95;1.10;;;;;;;;;;5052415;28;20047;-66
2023/01/09 10:41:08;;;;;;;3.03;0.90;;;;;;;;;;5052820;28;20106;-67
2023/01/09 10:43:46;;;;;;;1.58;0.60;;;;;;;;;;5053042;28;20533;-66
2023/01/09 10:46:17;;;;;;;2.50;1.15;;;;;;;;;;5052594;28;20368;-65
2023/01/09 10:48:45;;;;;;;0.90;0.70;;;;;;;;;;5054571;28;20107;-64
2023/01/09 10:51:21;;;;;;;2.25;0.85;;;;;;;;;;5054154;28;20033;-67
2023/01/09 10:53:49;;;;;;;2.35;0.90;;;;;;;;;;5053155;28;20687;-64
2023/01/09 10:56:29;;;;;;;7.97;1.30;;;;;;;;;;5054927;28;20017;-63
2023/01/09 10:58:55;;;;;;;3.08;0.90;;;;;;;;;;5055290;28;20082;-66
2023/01/09 11:01:24;;;;;;;2.53;1.05;;;;;;;;;;5054547;28;20452;-66
2023/01/09 11:03:51;;;;;;;3.30;0.90;;;;;;;;;;5054921;28;20083;-64
2023/01/09 11:06:22;;;;;;;3.17;1.17;;;;;;;;;;5054692;28;20013;-65
2023/01/09 11:08:49;;;;;;;5.63;0.90;;;;;;;;;;5068605;28;20029;-65
2023/01/09 11:11:30;;;;;;;13.65;1.10;;;;;;;;;;5071345;28;20051;-65
2023/01/09 11:14:04;;;;;;;4.50;2.08;;;;;;;;;;5060362;28;20028;-63
2023/01/09 11:16:30;;;;;;;2.05;1.10;;;;;;;;;;5061865;28;20025;-65
2023/01/09 11:18:58;;;;;;;1.30;0.82;;;;;;;;;;5069020;28;20032;-65
2023/01/09 11:21:27;;;;;;;6.60;1.13;;;;;;;;;;5050392;28;20047;-65
2023/01/09 11:23:53;;;;;;;2.95;1.77;;;;;;;;;;5063564;28;20063;-66
2023/01/09 11:26:24;;;;;;;4.10;1.00;;;;;;;;;;5062855;28;20024;-66
2023/01/09 11:29:08;;;;;;;2.25;1.02;;;;;;;;;;5071694;28;20035;-65
2023/01/09 11:31:34;;;;;;;2.92;0.95;;;;;;;;;;5071739;28;20100;-67
2023/01/09 11:34:00;;;;;;;3.28;1.08;;;;;;;;;;5071311;28;20075;-65
2023/01/09 11:36:27;;;;;;;3.88;0.70;;;;;;;;;;5071748;28;20487;-67
2023/01/09 11:38:54;;;;;;;4.20;0.90;;;;;;;;;;5059409;28;20017;-65
2023/01/09 11:41:21;;;;;;;4.30;0.50;;;;;;;;;;5051192;28;20047;-65
2023/01/09 11:43:49;;;;;;;5.10;1.13;;;;;;;;;;5049484;28;20025;-65
2023/01/09 11:46:33;;;;;;;1.30;1.02;;;;;;;;;;5049698;28;20021;-65
2023/01/09 11:49:00;;;;;;;12.50;1.67;;;;;;;;;;5050171;28;20025;-65
2023/01/09 11:51:27;;;;;;;2.28;0.73;;;;;;;;;;5050278;28;20441;-65
2023/01/09 11:54:12;;;;;;;2.20;0.70;;;;;;;;;;5051212;28;20057;-65
2023/01/09 11:56:38;;;;;;;2.72;0.80;;;;;;;;;;5051942;28;20475;-65
2023/01/09 11:59:15;;;;;;;4.13;1.00;;;;;;;;;;5051231;28;20028;-65
2023/01/09 12:02:00;;;;;;;2.10;0.70;;;;;;;;;;5051382;28;20031;-65
2023/01/09 12:04:31;;;;;;;4.03;1.00;;;;;;;;;;5051791;28;20391;-65
2023/01/09 12:07:16;;;;;;;2.28;0.70;;;;;;;;;;5055023;28;20025;-65
2023/01/09 12:09:55;;;;;;;1.90;1.00;;;;;;;;;;5055221;28;20108;-65
2023/01/09 12:12:31;;;;;;;1.55;0.55;;;;;;;;;;5054771;28;20032;-64
2023/01/09 12:15:16;;;;;;;0.70;0.47;;;;;;;;;;5054964;28;20029;-63
2023/01/09 12:17:41;;;;;;;0.70;0.70;;;;;;;;;;5054636;28;20032;-64
2023/01/09 12:20:13;;;;;;;2.15;0.73;;;;;;;;;;5054851;28;20029;-64
2023/01/09 12:22:58;;;;;;;1.35;1.05;;;;;;;;;;5054558;28;20035;-65
2023/01/09 12:25:43;;;;;;;3.60;0.73;;;;;;;;;;5054798;28;20029;-64
2023/01/09 12:28:27;;;;;;;0.82;0.55;;;;;;;;;;5054568;28;20056;-64
2023/01/09 12:31:12;;;;;;;1.63;0.70;;;;;;;;;;5053547;28;20021;-63
2023/01/09 12:33:41;;;;;;;10.73;1.35;;;;;;;;;;5054471;28;20059;-65
2023/01/09 12:36:21;;;;;;;8.70;2.25;;;;;;;;;;5055736;28;20029;-65
2023/01/09 12:38:55;;;;;;;13.48;1.30;;;;;;;;;;5056562;28;20029;-64
